Durham, NC

4:49 AM EDT en Junio 23, 2017 (GMT -0400)
South Durham | | Change Station

Alt 404 ft 35.99 °N, 78.90 °W | Updated 57 seconds ago

Muy nublado
Muy nublado
72.5 ° F
Sensación térmica 72.5 ° F
N
0.0
Viento Variable Viento desde ESE

Hoy
Alta -- | Baja -- ° F
--% Posibilidad de precipitaciones
Ayer
Alta -- | Baja -- ° F
Precip. -- pul
Presión 30.00 pul
Visibilidad 10.0 Millas
Nubes Baja 900 ft
Baja 3500 ft
Nubes dispersas 11000 ft
Muy nublado 14000 ft
Nublado 25000 ft
Punto de rocío 70 ° F
Humedad 93%
Precipitaciones 0.00 pul
Espesor de la nieve No disponible.
5:59 AM 8:36 PM
Creciente menguante, 1% visible
METAR KRDU 230751Z 23004KT 10SM -RA FEW009 FEW035 SCT110 BKN140 OVC250 23/22 A3001 RMK AO2 SLP158 P0000 T02280222
Presión 30.00 pul
Visibilidad 10.0 Millas
Nubes Baja 900 ft
Baja 3500 ft
Nubes dispersas 11000 ft
Muy nublado 14000 ft
Nublado 25000 ft
Punto de rocío 70 ° F
Humedad 93%
Precipitaciones 0.00 pul
Espesor de la nieve No disponible.
5:59 AM 8:36 PM
Creciente menguante, 1% visible
METAR KRDU 230751Z 23004KT 10SM -RA FEW009 FEW035 SCT110 BKN140 OVC250 23/22 A3001 RMK AO2 SLP158 P0000 T02280222

Get Severe Weather Alerts

Thanks for signing up!

Be on the lookout for a verification email in your inbox.

You'll start receiving the daily forecast at 6 AM.

×

10-Day Weather Forecast

Almanac

Astronomía

Jun. 23, 2017 Salida Puesta
Hora real
Crepúsculo civil
Crepúsculo náutico
Crepúsculo astronómico
Luna
Horas de luz
Horas de luz
Tomorrow will be .
, % of the Moon is Illuminated

Extremos de hoy

Máximos del estado Bajos del estado

Community

WunderPhotos

Category 6

Welcome to Category 6. This is the collective home for Weather Underground's featured writeups by Dr. Jeff Masters (right), Bob Henson (left), Chris Burt, and other regular contributors.

Nearby

Calidad del aire

  Calidad del aire Índice AQ Contaminante
Not available.

Grosos de nieve

Estación Profundido Altura

Actividad de terremotos

Ciudad Distance Mag. Tiempo y dato
Magnitud mínima muestra es 2,5.

Temperaturas de aguas costeras

Lugar Temperatura

Stations

Estaciones meteorológicas cercanas

Ubicación de la estación Temp. Vientos helados Punto de rocío Humedad Viento Precip. Alt Actualizado Tipo
                   

Watches & Warnings

There are currently no watches in effect.